sensor_id;sensor_type;location;lat;lon;timestamp;pressure;altitude;pressure_sealevel;temperature;humidity
69689;BME280;56932;38.402;-96.176;2022-12-01T00:00:57;98906.10;;;21.20;17.21
69689;BME280;56932;38.402;-96.176;2022-12-01T00:03:22;98911.74;;;20.69;17.64
69689;BME280;56932;38.402;-96.176;2022-12-01T00:05:47;98918.35;;;21.19;17.51
69689;BME280;56932;38.402;-96.176;2022-12-01T00:08:13;98922.12;;;21.55;17.22
69689;BME280;56932;38.402;-96.176;2022-12-01T00:10:38;98926.54;;;21.91;17.09
69689;BME280;56932;38.402;-96.176;2022-12-01T00:13:05;98928.68;;;21.26;17.46
69689;BME280;56932;38.402;-96.176;2022-12-01T00:15:32;98923.98;;;21.72;17.13
69689;BME280;56932;38.402;-96.176;2022-12-01T00:17:56;98920.69;;;21.91;17.16
69689;BME280;56932;38.402;-96.176;2022-12-01T00:20:21;98916.95;;;21.25;17.60
69689;BME280;56932;38.402;-96.176;2022-12-01T00:22:48;98913.70;;;21.58;17.22
69689;BME280;56932;38.402;-96.176;2022-12-01T00:25:13;98916.11;;;22.18;16.96
69689;BME280;56932;38.402;-96.176;2022-12-01T00:27:37;98919.55;;;21.23;17.65
69689;BME280;56932;38.402;-96.176;2022-12-01T00:30:03;98910.29;;;21.67;17.40
69689;BME280;56932;38.402;-96.176;2022-12-01T00:32:29;98905.75;;;21.28;17.70
69689;BME280;56932;38.402;-96.176;2022-12-01T00:34:54;98905.58;;;20.26;18.33
69689;BME280;56932;38.402;-96.176;2022-12-01T00:37:19;98906.05;;;21.22;17.96
69689;BME280;56932;38.402;-96.176;2022-12-01T00:39:45;98907.14;;;20.73;18.13
69689;BME280;56932;38.402;-96.176;2022-12-01T00:42:10;98907.12;;;22.03;17.44
69689;BME280;56932;38.402;-96.176;2022-12-01T00:44:36;98897.10;;;21.21;17.86
69689;BME280;56932;38.402;-96.176;2022-12-01T00:47:01;98899.05;;;21.89;17.69
69689;BME280;56932;38.402;-96.176;2022-12-01T00:49:27;98903.91;;;20.95;18.28
69689;BME280;56932;38.402;-96.176;2022-12-01T00:51:52;98906.31;;;21.57;18.13
69689;BME280;56932;38.402;-96.176;2022-12-01T00:54:18;98911.51;;;20.88;18.72
69689;BME280;56932;38.402;-96.176;2022-12-01T00:56:43;98914.22;;;21.32;18.56
69689;BME280;56932;38.402;-96.176;2022-12-01T00:59:09;98909.62;;;21.75;18.25
69689;BME280;56932;38.402;-96.176;2022-12-01T01:01:35;98906.58;;;21.80;18.29
69689;BME280;56932;38.402;-96.176;2022-12-01T01:04:00;98910.92;;;21.81;18.34
69689;BME280;56932;38.402;-96.176;2022-12-01T01:06:25;98920.74;;;21.03;18.65
69689;BME280;56932;38.402;-96.176;2022-12-01T01:08:50;98922.82;;;21.42;18.55
69689;BME280;56932;38.402;-96.176;2022-12-01T01:11:16;98917.75;;;21.36;18.56
69689;BME280;56932;38.402;-96.176;2022-12-01T01:13:42;98912.27;;;21.32;18.64
69689;BME280;56932;38.402;-96.176;2022-12-01T01:16:12;98913.78;;;20.98;18.87
69689;BME280;56932;38.402;-96.176;2022-12-01T01:18:32;98918.33;;;21.27;18.63
69689;BME280;56932;38.402;-96.176;2022-12-01T01:20:58;98920.76;;;20.75;18.99
69689;BME280;56932;38.402;-96.176;2022-12-01T01:23:23;98920.24;;;21.83;18.16
69689;BME280;56932;38.402;-96.176;2022-12-01T01:25:48;98922.79;;;21.11;18.58
69689;BME280;56932;38.402;-96.176;2022-12-01T01:28:13;98924.85;;;20.56;18.84
69689;BME280;56932;38.402;-96.176;2022-12-01T01:30:39;98928.22;;;22.02;18.09
69689;BME280;56932;38.402;-96.176;2022-12-01T01:33:04;98932.71;;;21.22;18.30
69689;BME280;56932;38.402;-96.176;2022-12-01T01:35:30;98927.73;;;21.59;18.00
69689;BME280;56932;38.402;-96.176;2022-12-01T01:37:55;98922.91;;;21.15;18.28
69689;BME280;56932;38.402;-96.176;2022-12-01T01:40:21;98920.47;;;20.41;18.78
69689;BME280;56932;38.402;-96.176;2022-12-01T01:42:46;98929.18;;;20.98;18.45
69689;BME280;56932;38.402;-96.176;2022-12-01T01:45:20;98925.79;;;21.16;18.37
69689;BME280;56932;38.402;-96.176;2022-12-01T01:47:39;98927.98;;;20.99;18.74
69689;BME280;56932;38.402;-96.176;2022-12-01T01:50:05;98931.72;;;20.74;18.81
69689;BME280;56932;38.402;-96.176;2022-12-01T01:52:28;98936.18;;;20.83;18.86
69689;BME280;56932;38.402;-96.176;2022-12-01T01:54:55;98938.46;;;19.76;19.99
69689;BME280;56932;38.402;-96.176;2022-12-01T01:57:24;98945.08;;;20.88;19.33
69689;BME280;56932;38.402;-96.176;2022-12-01T01:59:48;98945.31;;;21.15;19.60
69689;BME280;56932;38.402;-96.176;2022-12-01T02:02:11;98943.44;;;20.87;19.99
69689;BME280;56932;38.402;-96.176;2022-12-01T02:04:37;98940.06;;;20.52;20.46
69689;BME280;56932;38.402;-96.176;2022-12-01T02:07:00;98940.10;;;21.33;20.19
69689;BME280;56932;38.402;-96.176;2022-12-01T02:09:26;98936.18;;;20.92;20.58
69689;BME280;56932;38.402;-96.176;2022-12-01T02:12:02;98932.39;;;20.44;20.93
69689;BME280;56932;38.402;-96.176;2022-12-01T02:14:27;98930.94;;;21.19;20.42
69689;BME280;56932;38.402;-96.176;2022-12-01T02:16:48;98927.37;;;20.89;20.45
69689;BME280;56932;38.402;-96.176;2022-12-01T02:19:20;98922.32;;;20.88;20.39
69689;BME280;56932;38.402;-96.176;2022-12-01T02:21:46;98920.96;;;20.93;20.63
69689;BME280;56932;38.402;-96.176;2022-12-01T02:24:10;98921.58;;;21.01;20.44
69689;BME280;56932;38.402;-96.176;2022-12-01T02:26:32;98919.77;;;21.03;20.40
69689;BME280;56932;38.402;-96.176;2022-12-01T02:29:00;98916.28;;;21.26;20.37
69689;BME280;56932;38.402;-96.176;2022-12-01T02:31:17;98915.29;;;20.67;20.80
69689;BME280;56932;38.402;-96.176;2022-12-01T02:33:45;98924.02;;;21.24;20.29
69689;BME280;56932;38.402;-96.176;2022-12-01T02:36:14;98929.47;;;21.44;20.04
69689;BME280;56932;38.402;-96.176;2022-12-01T02:38:36;98931.87;;;20.48;20.54
69689;BME280;56932;38.402;-96.176;2022-12-01T02:41:03;98934.91;;;19.24;21.38
69689;BME280;56932;38.402;-96.176;2022-12-01T02:43:28;98935.35;;;20.68;20.17
69689;BME280;56932;38.402;-96.176;2022-12-01T02:45:52;98940.69;;;20.30;20.24
69689;BME280;56932;38.402;-96.176;2022-12-01T02:48:19;98939.15;;;20.84;20.09
69689;BME280;56932;38.402;-96.176;2022-12-01T02:50:40;98935.82;;;20.37;20.04
69689;BME280;56932;38.402;-96.176;2022-12-01T02:53:08;98928.86;;;20.42;20.26
69689;BME280;56932;38.402;-96.176;2022-12-01T02:55:31;98932.45;;;20.65;20.00
69689;BME280;56932;38.402;-96.176;2022-12-01T02:57:56;98928.68;;;19.87;20.36
69689;BME280;56932;38.402;-96.176;2022-12-01T03:00:22;98935.92;;;19.48;20.44
69689;BME280;56932;38.402;-96.176;2022-12-01T03:02:58;98940.15;;;20.47;19.94
69689;BME280;56932;38.402;-96.176;2022-12-01T03:05:20;98944.10;;;20.59;19.81
69689;BME280;56932;38.402;-96.176;2022-12-01T03:07:48;98937.47;;;20.36;19.84
69689;BME280;56932;38.402;-96.176;2022-12-01T03:10:11;98936.67;;;19.86;20.02
69689;BME280;56932;38.402;-96.176;2022-12-01T03:12:46;98937.04;;;20.25;19.83
69689;BME280;56932;38.402;-96.176;2022-12-01T03:15:01;98944.97;;;20.80;19.38
69689;BME280;56932;38.402;-96.176;2022-12-01T03:17:26;98939.94;;;20.47;19.57
69689;BME280;56932;38.402;-96.176;2022-12-01T03:19:51;98934.58;;;20.35;19.63
69689;BME280;56932;38.402;-96.176;2022-12-01T03:22:14;98934.24;;;20.12;19.74
69689;BME280;56932;38.402;-96.176;2022-12-01T03:24:39;98934.07;;;20.48;19.41
69689;BME280;56932;38.402;-96.176;2022-12-01T03:27:03;98938.50;;;20.42;19.58
69689;BME280;56932;38.402;-96.176;2022-12-01T03:29:32;98939.59;;;19.87;19.79
69689;BME280;56932;38.402;-96.176;2022-12-01T03:31:56;98938.38;;;20.06;19.60
69689;BME280;56932;38.402;-96.176;2022-12-01T03:34:22;98945.37;;;20.79;19.05
69689;BME280;56932;38.402;-96.176;2022-12-01T03:36:46;98944.84;;;20.08;19.50
69689;BME280;56932;38.402;-96.176;2022-12-01T03:39:12;98936.97;;;20.00;19.56
69689;BME280;56932;38.402;-96.176;2022-12-01T03:41:38;98933.62;;;19.57;19.67
69689;BME280;56932;38.402;-96.176;2022-12-01T03:44:05;98930.26;;;20.19;19.54
69689;BME280;56932;38.402;-96.176;2022-12-01T03:46:34;98941.02;;;19.67;19.66
69689;BME280;56932;38.402;-96.176;2022-12-01T03:48:52;98943.13;;;19.47;19.76
69689;BME280;56932;38.402;-96.176;2022-12-01T03:51:29;98939.72;;;19.87;19.64
69689;BME280;56932;38.402;-96.176;2022-12-01T03:53:50;98942.37;;;19.30;19.98
69689;BME280;56932;38.402;-96.176;2022-12-01T03:56:09;98933.89;;;19.07;20.09
69689;BME280;56932;38.402;-96.176;2022-12-01T03:58:38;98936.03;;;19.25;20.00
69689;BME280;56932;38.402;-96.176;2022-12-01T04:01:02;98940.00;;;18.46;20.58
69689;BME280;56932;38.402;-96.176;2022-12-01T04:03:25;98943.79;;;18.36;20.63
69689;BME280;56932;38.402;-96.176;2022-12-01T04:05:51;98938.10;;;17.86;21.15
69689;BME280;56932;38.402;-96.176;2022-12-01T04:08:17;98939.16;;;17.70;21.32
69689;BME280;56932;38.402;-96.176;2022-12-01T04:10:42;98939.85;;;17.51;21.67
69689;BME280;56932;38.402;-96.176;2022-12-01T04:13:08;98941.49;;;17.51;22.11
69689;BME280;56932;38.402;-96.176;2022-12-01T04:15:33;98949.02;;;17.77;21.40
69689;BME280;56932;38.402;-96.176;2022-12-01T04:17:59;98945.66;;;18.02;21.43
69689;BME280;56932;38.402;-96.176;2022-12-01T04:20:24;98953.66;;;18.03;21.43
69689;BME280;56932;38.402;-96.176;2022-12-01T04:22:50;98949.18;;;17.72;21.71
69689;BME280;56932;38.402;-96.176;2022-12-01T04:25:16;98952.54;;;18.28;21.33
69689;BME280;56932;38.402;-96.176;2022-12-01T04:27:41;98948.87;;;18.60;21.17
69689;BME280;56932;38.402;-96.176;2022-12-01T04:30:08;98951.45;;;18.52;21.08
69689;BME280;56932;38.402;-96.176;2022-12-01T04:32:37;98955.64;;;18.48;20.92
69689;BME280;56932;38.402;-96.176;2022-12-01T04:34:58;98952.03;;;18.85;20.69
69689;BME280;56932;38.402;-96.176;2022-12-01T04:37:23;98944.00;;;18.25;21.15
69689;BME280;56932;38.402;-96.176;2022-12-01T04:39:49;98938.43;;;19.47;20.31
69689;BME280;56932;38.402;-96.176;2022-12-01T04:42:15;98929.74;;;18.20;21.45
69689;BME280;56932;38.402;-96.176;2022-12-01T04:44:40;98930.40;;;18.47;21.07
69689;BME280;56932;38.402;-96.176;2022-12-01T04:47:06;98927.58;;;19.06;20.59
69689;BME280;56932;38.402;-96.176;2022-12-01T04:49:32;98927.44;;;18.34;20.82
69689;BME280;56932;38.402;-96.176;2022-12-01T04:51:57;98929.19;;;18.71;20.86
69689;BME280;56932;38.402;-96.176;2022-12-01T04:54:23;98927.33;;;18.64;20.87
69689;BME280;56932;38.402;-96.176;2022-12-01T04:56:47;98929.13;;;18.93;20.37
69689;BME280;56932;38.402;-96.176;2022-12-01T04:59:13;98932.75;;;18.31;21.15
69689;BME280;56932;38.402;-96.176;2022-12-01T05:01:39;98925.80;;;18.45;20.67
69689;BME280;56932;38.402;-96.176;2022-12-01T05:04:04;98928.50;;;18.30;20.93
69689;BME280;56932;38.402;-96.176;2022-12-01T05:06:30;98918.24;;;18.95;20.36
69689;BME280;56932;38.402;-96.176;2022-12-01T05:08:57;98920.07;;;18.63;20.44
69689;BME280;56932;38.402;-96.176;2022-12-01T05:11:22;98915.54;;;18.51;20.86
69689;BME280;56932;38.402;-96.176;2022-12-01T05:13:47;98914.38;;;18.31;20.83
69689;BME280;56932;38.402;-96.176;2022-12-01T05:16:14;98920.27;;;19.09;20.37
69689;BME280;56932;38.402;-96.176;2022-12-01T05:18:38;98916.82;;;18.77;20.62
69689;BME280;56932;38.402;-96.176;2022-12-01T05:21:05;98911.79;;;19.43;19.93
69689;BME280;56932;38.402;-96.176;2022-12-01T05:23:31;98912.52;;;18.45;20.58
69689;BME280;56932;38.402;-96.176;2022-12-01T05:25:55;98912.88;;;18.20;20.92
69689;BME280;56932;38.402;-96.176;2022-12-01T05:28:21;98911.53;;;19.03;20.36
69689;BME280;56932;38.402;-96.176;2022-12-01T05:30:45;98910.51;;;19.39;19.80
69689;BME280;56932;38.402;-96.176;2022-12-01T05:33:11;98915.86;;;19.54;19.90
69689;BME280;56932;38.402;-96.176;2022-12-01T05:35:37;98915.26;;;18.71;20.09
69689;BME280;56932;38.402;-96.176;2022-12-01T05:38:02;98913.62;;;18.96;20.22
69689;BME280;56932;38.402;-96.176;2022-12-01T05:40:28;98910.22;;;20.22;19.27
69689;BME280;56932;38.402;-96.176;2022-12-01T05:42:53;98909.56;;;18.44;20.54
69689;BME280;56932;38.402;-96.176;2022-12-01T05:45:19;98908.19;;;18.81;20.01
69689;BME280;56932;38.402;-96.176;2022-12-01T05:47:44;98903.63;;;19.81;19.30
69689;BME280;56932;38.402;-96.176;2022-12-01T05:50:10;98906.20;;;18.41;20.46
69689;BME280;56932;38.402;-96.176;2022-12-01T05:52:36;98902.25;;;18.32;20.35
69689;BME280;56932;38.402;-96.176;2022-12-01T05:55:01;98889.05;;;19.39;19.53
69689;BME280;56932;38.402;-96.176;2022-12-01T05:57:26;98891.24;;;18.89;19.92
69689;BME280;56932;38.402;-96.176;2022-12-01T05:59:52;98891.33;;;19.28;19.60
69689;BME280;56932;38.402;-96.176;2022-12-01T06:02:18;98893.16;;;19.04;19.76
69689;BME280;56932;38.402;-96.176;2022-12-01T06:04:43;98883.62;;;18.40;19.99
69689;BME280;56932;38.402;-96.176;2022-12-01T06:07:09;98885.88;;;18.76;19.67
69689;BME280;56932;38.402;-96.176;2022-12-01T06:09:34;98889.60;;;19.03;19.71
69689;BME280;56932;38.402;-96.176;2022-12-01T06:12:00;98893.37;;;18.60;19.93
69689;BME280;56932;38.402;-96.176;2022-12-01T06:14:25;98888.43;;;19.41;18.97
69689;BME280;56932;38.402;-96.176;2022-12-01T06:16:51;98884.09;;;19.27;19.38
69689;BME280;56932;38.402;-96.176;2022-12-01T06:19:17;98872.88;;;19.61;18.91
69689;BME280;56932;38.402;-96.176;2022-12-01T06:21:42;98853.89;;;19.27;19.18
69689;BME280;56932;38.402;-96.176;2022-12-01T06:24:08;98835.60;;;18.31;19.98
69689;BME280;56932;38.402;-96.176;2022-12-01T06:26:33;98824.07;;;19.19;19.31
69689;BME280;56932;38.402;-96.176;2022-12-01T06:28:59;98829.31;;;18.85;19.52
69689;BME280;56932;38.402;-96.176;2022-12-01T06:31:24;98829.92;;;18.84;19.19
69689;BME280;56932;38.402;-96.176;2022-12-01T06:33:50;98820.20;;;18.71;19.76
69689;BME280;56932;38.402;-96.176;2022-12-01T06:36:15;98823.15;;;19.60;18.96
69689;BME280;56932;38.402;-96.176;2022-12-01T06:38:41;98820.93;;;18.93;19.18
69689;BME280;56932;38.402;-96.176;2022-12-01T06:41:07;98820.14;;;18.58;19.61
69689;BME280;56932;38.402;-96.176;2022-12-01T06:43:35;98818.81;;;19.22;18.95
69689;BME280;56932;38.402;-96.176;2022-12-01T06:45:58;98818.90;;;19.39;18.97
69689;BME280;56932;38.402;-96.176;2022-12-01T06:48:24;98816.21;;;18.71;19.10
69689;BME280;56932;38.402;-96.176;2022-12-01T06:50:49;98807.42;;;19.07;19.07
69689;BME280;56932;38.402;-96.176;2022-12-01T06:53:14;98799.17;;;19.23;18.97
69689;BME280;56932;38.402;-96.176;2022-12-01T06:55:40;98792.59;;;18.31;19.75
69689;BME280;56932;38.402;-96.176;2022-12-01T06:58:06;98791.10;;;18.91;19.19
69689;BME280;56932;38.402;-96.176;2022-12-01T07:00:31;98788.99;;;19.19;18.82
69689;BME280;56932;38.402;-96.176;2022-12-01T07:02:57;98790.76;;;18.65;19.43
69689;BME280;56932;38.402;-96.176;2022-12-01T07:05:23;98798.16;;;18.63;19.74
69689;BME280;56932;38.402;-96.176;2022-12-01T07:07:48;98801.23;;;18.66;19.41
69689;BME280;56932;38.402;-96.176;2022-12-01T07:10:14;98793.84;;;18.70;19.14
69689;BME280;56932;38.402;-96.176;2022-12-01T07:12:39;98791.90;;;18.42;19.34
69689;BME280;56932;38.402;-96.176;2022-12-01T07:15:06;98790.63;;;18.55;19.19
69689;BME280;56932;38.402;-96.176;2022-12-01T07:17:30;98788.82;;;19.17;18.94
69689;BME280;56932;38.402;-96.176;2022-12-01T07:19:56;98792.55;;;19.22;18.68
69689;BME280;56932;38.402;-96.176;2022-12-01T07:22:22;98807.02;;;19.28;18.70
69689;BME280;56932;38.402;-96.176;2022-12-01T07:24:47;98810.51;;;18.28;19.22
69689;BME280;56932;38.402;-96.176;2022-12-01T07:27:12;98809.67;;;19.13;18.68
69689;BME280;56932;38.402;-96.176;2022-12-01T07:29:38;98800.73;;;19.14;18.82
69689;BME280;56932;38.402;-96.176;2022-12-01T07:32:04;98802.83;;;19.19;18.75
69689;BME280;56932;38.402;-96.176;2022-12-01T07:34:29;98808.02;;;18.72;18.84
69689;BME280;56932;38.402;-96.176;2022-12-01T07:36:55;98817.96;;;18.94;18.72
69689;BME280;56932;38.402;-96.176;2022-12-01T07:39:20;98821.75;;;18.73;19.10
69689;BME280;56932;38.402;-96.176;2022-12-01T07:41:46;98811.88;;;18.13;19.74
69689;BME280;56932;38.402;-96.176;2022-12-01T07:44:12;98811.43;;;17.98;19.74
69689;BME280;56932;38.402;-96.176;2022-12-01T07:46:37;98811.53;;;17.98;20.04
69689;BME280;56932;38.402;-96.176;2022-12-01T07:49:05;98810.79;;;16.88;20.86
69689;BME280;56932;38.402;-96.176;2022-12-01T07:51:28;98812.11;;;17.33;20.60
69689;BME280;56932;38.402;-96.176;2022-12-01T07:53:54;98813.71;;;17.28;20.73
69689;BME280;56932;38.402;-96.176;2022-12-01T07:56:21;98818.20;;;17.58;20.53
69689;BME280;56932;38.402;-96.176;2022-12-01T07:58:45;98815.96;;;17.44;20.54
69689;BME280;56932;38.402;-96.176;2022-12-01T08:01:12;98805.16;;;17.83;20.01
69689;BME280;56932;38.402;-96.176;2022-12-01T08:03:36;98795.17;;;18.33;19.98
69689;BME280;56932;38.402;-96.176;2022-12-01T08:06:02;98781.45;;;18.28;20.18
69689;BME280;56932;38.402;-96.176;2022-12-01T08:08:28;98769.29;;;18.33;19.84
69689;BME280;56932;38.402;-96.176;2022-12-01T08:10:53;98770.02;;;18.93;19.61
69689;BME280;56932;38.402;-96.176;2022-12-01T08:13:19;98771.06;;;17.85;20.47
69689;BME280;56932;38.402;-96.176;2022-12-01T08:15:44;98756.37;;;17.78;20.60
69689;BME280;56932;38.402;-96.176;2022-12-01T08:18:09;98753.02;;;17.87;20.39
69689;BME280;56932;38.402;-96.176;2022-12-01T08:20:35;98753.59;;;18.36;20.04
69689;BME280;56932;38.402;-96.176;2022-12-01T08:23:01;98751.25;;;18.04;20.29
69689;BME280;56932;38.402;-96.176;2022-12-01T08:25:26;98745.63;;;18.49;19.83
69689;BME280;56932;38.402;-96.176;2022-12-01T08:27:52;98736.21;;;18.24;20.02
69689;BME280;56932;38.402;-96.176;2022-12-01T08:30:17;98733.04;;;18.37;20.16
69689;BME280;56932;38.402;-96.176;2022-12-01T08:32:43;98734.79;;;18.28;20.42
69689;BME280;56932;38.402;-96.176;2022-12-01T08:35:09;98732.02;;;18.64;19.98
69689;BME280;56932;38.402;-96.176;2022-12-01T08:37:34;98729.66;;;18.31;20.21
69689;BME280;56932;38.402;-96.176;2022-12-01T08:39:59;98741.95;;;19.12;19.51
69689;BME280;56932;38.402;-96.176;2022-12-01T08:42:25;98738.15;;;18.27;20.06
69689;BME280;56932;38.402;-96.176;2022-12-01T08:44:50;98751.21;;;18.88;19.53
69689;BME280;56932;38.402;-96.176;2022-12-01T08:47:16;98754.45;;;18.54;20.03
69689;BME280;56932;38.402;-96.176;2022-12-01T08:49:42;98754.41;;;19.22;19.53
69689;BME280;56932;38.402;-96.176;2022-12-01T08:52:07;98753.05;;;19.58;19.30
69689;BME280;56932;38.402;-96.176;2022-12-01T08:54:33;98746.92;;;18.81;19.47
69689;BME280;56932;38.402;-96.176;2022-12-01T08:56:58;98752.36;;;19.23;19.36
69689;BME280;56932;38.402;-96.176;2022-12-01T08:59:24;98763.88;;;18.94;19.41
69689;BME280;56932;38.402;-96.176;2022-12-01T09:01:49;98772.08;;;18.97;19.74
69689;BME280;56932;38.402;-96.176;2022-12-01T09:04:15;98781.24;;;18.55;19.81
69689;BME280;56932;38.402;-96.176;2022-12-01T09:06:42;98782.75;;;19.11;19.55
69689;BME280;56932;38.402;-96.176;2022-12-01T09:09:06;98776.59;;;19.28;19.32
69689;BME280;56932;38.402;-96.176;2022-12-01T09:11:32;98768.46;;;18.50;19.76
69689;BME280;56932;38.402;-96.176;2022-12-01T09:13:58;98753.13;;;18.58;19.87
69689;BME280;56932;38.402;-96.176;2022-12-01T09:16:23;98754.98;;;18.53;19.93
69689;BME280;56932;38.402;-96.176;2022-12-01T09:18:48;98747.65;;;19.08;19.61
69689;BME280;56932;38.402;-96.176;2022-12-01T09:21:15;98744.88;;;18.19;20.04
69689;BME280;56932;38.402;-96.176;2022-12-01T09:23:39;98735.26;;;19.31;19.34
69689;BME280;56932;38.402;-96.176;2022-12-01T09:26:06;98737.79;;;19.05;19.26
69689;BME280;56932;38.402;-96.176;2022-12-01T09:28:30;98739.07;;;19.39;18.94
69689;BME280;56932;38.402;-96.176;2022-12-01T09:30:56;98737.86;;;19.54;19.04
69689;BME280;56932;38.402;-96.176;2022-12-01T09:33:21;98730.53;;;20.29;18.54
69689;BME280;56932;38.402;-96.176;2022-12-01T09:35:47;98730.52;;;19.03;19.10
69689;BME280;56932;38.402;-96.176;2022-12-01T09:38:12;98716.09;;;19.84;18.73
69689;BME280;56932;38.402;-96.176;2022-12-01T09:40:40;98712.88;;;19.07;19.00
69689;BME280;56932;38.402;-96.176;2022-12-01T09:43:09;98707.44;;;19.84;18.45
69689;BME280;56932;38.402;-96.176;2022-12-01T09:45:34;98697.83;;;18.43;19.45
69689;BME280;56932;38.402;-96.176;2022-12-01T09:47:57;98698.55;;;19.77;18.83
69689;BME280;56932;38.402;-96.176;2022-12-01T09:50:22;98691.23;;;19.90;18.71
69689;BME280;56932;38.402;-96.176;2022-12-01T09:52:48;98683.12;;;19.34;19.24
69689;BME280;56932;38.402;-96.176;2022-12-01T09:55:12;98681.28;;;19.32;18.94
69689;BME280;56932;38.402;-96.176;2022-12-01T09:57:37;98676.28;;;19.53;18.90
69689;BME280;56932;38.402;-96.176;2022-12-01T10:00:06;98669.38;;;19.70;18.73
69689;BME280;56932;38.402;-96.176;2022-12-01T10:02:32;98663.31;;;19.10;18.86
69689;BME280;56932;38.402;-96.176;2022-12-01T10:04:55;98660.70;;;17.84;20.13
69689;BME280;56932;38.402;-96.176;2022-12-01T10:07:22;98660.81;;;19.41;19.03
69689;BME280;56932;38.402;-96.176;2022-12-01T10:09:51;98644.34;;;18.50;19.52
69689;BME280;56932;38.402;-96.176;2022-12-01T10:12:15;98641.90;;;18.85;19.25
69689;BME280;56932;38.402;-96.176;2022-12-01T10:14:36;98631.74;;;18.42;19.40
69689;BME280;56932;38.402;-96.176;2022-12-01T10:17:11;98635.02;;;19.60;18.93
69689;BME280;56932;38.402;-96.176;2022-12-01T10:19:33;98628.75;;;19.52;18.74
69689;BME280;56932;38.402;-96.176;2022-12-01T10:22:05;98636.41;;;19.43;18.67
69689;BME280;56932;38.402;-96.176;2022-12-01T10:24:28;98637.29;;;18.94;19.05
69689;BME280;56932;38.402;-96.176;2022-12-01T10:26:50;98642.40;;;19.10;18.75
69689;BME280;56932;38.402;-96.176;2022-12-01T10:29:12;98644.60;;;18.78;19.18
69689;BME280;56932;38.402;-96.176;2022-12-01T10:31:40;98650.06;;;19.03;18.97
69689;BME280;56932;38.402;-96.176;2022-12-01T10:34:02;98661.09;;;19.49;18.58
69689;BME280;56932;38.402;-96.176;2022-12-01T10:36:26;98657.76;;;18.78;19.02
69689;BME280;56932;38.402;-96.176;2022-12-01T10:38:51;98661.90;;;19.32;18.67
69689;BME280;56932;38.402;-96.176;2022-12-01T10:41:18;98654.94;;;18.59;19.16
69689;BME280;56932;38.402;-96.176;2022-12-01T10:43:44;98653.51;;;18.39;19.28
69689;BME280;56932;38.402;-96.176;2022-12-01T10:46:15;98648.79;;;18.82;19.03
69689;BME280;56932;38.402;-96.176;2022-12-01T10:48:41;98644.00;;;18.13;19.66
69689;BME280;56932;38.402;-96.176;2022-12-01T10:53:28;98639.66;;;18.84;18.89
69689;BME280;56932;38.402;-96.176;2022-12-01T10:55:57;98636.59;;;19.17;18.86
69689;BME280;56932;38.402;-96.176;2022-12-01T10:58:17;98635.30;;;19.10;18.70
69689;BME280;56932;38.402;-96.176;2022-12-01T11:00:42;98631.21;;;19.05;18.69
69689;BME280;56932;38.402;-96.176;2022-12-01T11:05:38;98622.18;;;18.82;19.04
69689;BME280;56932;38.402;-96.176;2022-12-01T11:07:58;98614.78;;;18.28;19.32
69689;BME280;56932;38.402;-96.176;2022-12-01T11:10:26;98607.15;;;18.37;18.92
69689;BME280;56932;38.402;-96.176;2022-12-01T11:12:54;98592.39;;;19.27;18.59
69689;BME280;56932;38.402;-96.176;2022-12-01T11:15:22;98598.61;;;19.56;18.58
69689;BME280;56932;38.402;-96.176;2022-12-01T11:17:41;98600.54;;;18.05;19.34
69689;BME280;56932;38.402;-96.176;2022-12-01T11:22:31;98599.93;;;18.93;18.71
69689;BME280;56932;38.402;-96.176;2022-12-01T11:24:59;98606.93;;;18.56;18.78
69689;BME280;56932;38.402;-96.176;2022-12-01T11:27:24;98605.15;;;19.15;18.63
69689;BME280;56932;38.402;-96.176;2022-12-01T11:29:49;98604.83;;;18.65;19.16
69689;BME280;56932;38.402;-96.176;2022-12-01T11:32:19;98603.48;;;18.76;18.91
69689;BME280;56932;38.402;-96.176;2022-12-01T11:34:39;98614.74;;;18.16;19.37
69689;BME280;56932;38.402;-96.176;2022-12-01T11:37:07;98621.65;;;17.15;20.11
69689;BME280;56932;38.402;-96.176;2022-12-01T11:39:32;98625.34;;;17.13;20.15
69689;BME280;56932;38.402;-96.176;2022-12-01T11:41:57;98623.42;;;17.25;20.11
69689;BME280;56932;38.402;-96.176;2022-12-01T11:44:22;98629.74;;;16.90;20.41
69689;BME280;56932;38.402;-96.176;2022-12-01T11:46:47;98632.79;;;17.51;19.95
69689;BME280;56932;38.402;-96.176;2022-12-01T11:49:17;98632.65;;;18.01;19.46
69689;BME280;56932;38.402;-96.176;2022-12-01T11:51:38;98631.55;;;17.53;19.83
69689;BME280;56932;38.402;-96.176;2022-12-01T11:56:30;98619.60;;;17.92;19.69
69689;BME280;56932;38.402;-96.176;2022-12-01T11:58:59;98619.33;;;17.81;19.77
69689;BME280;56932;38.402;-96.176;2022-12-01T12:01:31;98619.58;;;18.44;19.12
69689;BME280;56932;38.402;-96.176;2022-12-01T12:03:55;98625.64;;;18.58;19.07
69689;BME280;56932;38.402;-96.176;2022-12-01T12:06:17;98619.25;;;18.27;19.33
69689;BME280;56932;38.402;-96.176;2022-12-01T12:08:48;98619.26;;;18.48;19.26
69689;BME280;56932;38.402;-96.176;2022-12-01T12:11:09;98608.98;;;18.43;19.19
69689;BME280;56932;38.402;-96.176;2022-12-01T12:13:42;98602.75;;;18.20;19.27
69689;BME280;56932;38.402;-96.176;2022-12-01T12:15:58;98602.59;;;18.77;19.04
69689;BME280;56932;38.402;-96.176;2022-12-01T12:18:34;98600.73;;;18.97;19.08
69689;BME280;56932;38.402;-96.176;2022-12-01T12:20:53;98592.23;;;18.57;19.33
69689;BME280;56932;38.402;-96.176;2022-12-01T12:23:21;98582.13;;;19.12;18.96
69689;BME280;56932;38.402;-96.176;2022-12-01T12:25:44;98580.19;;;18.23;19.60
69689;BME280;56932;38.402;-96.176;2022-12-01T12:28:15;98575.14;;;18.09;19.80
69689;BME280;56932;38.402;-96.176;2022-12-01T12:30:28;98572.05;;;18.15;19.83
69689;BME280;56932;38.402;-96.176;2022-12-01T12:35:28;98579.00;;;18.22;19.79
69689;BME280;56932;38.402;-96.176;2022-12-01T12:37:50;98587.66;;;18.58;19.58
69689;BME280;56932;38.402;-96.176;2022-12-01T12:40:19;98596.96;;;18.00;19.63
69689;BME280;56932;38.402;-96.176;2022-12-01T12:42:42;98596.68;;;19.55;18.48